sensor_id;sensor_type;location;lat;lon;timestamp;temperature;humidity
16198;DHT22;8206;51.440;6.914;2022-12-01T00:01:23;6.20;99.90
16198;DHT22;8206;51.440;6.914;2022-12-01T00:03:49;6.20;99.90
16198;DHT22;8206;51.440;6.914;2022-12-01T00:06:18;6.20;99.90
16198;DHT22;8206;51.440;6.914;2022-12-01T00:08:48;6.20;99.90
16198;DHT22;8206;51.440;6.914;2022-12-01T00:11:33;6.20;99.90
16198;DHT22;8206;51.440;6.914;2022-12-01T00:14:00;6.10;99.90
16198;DHT22;8206;51.440;6.914;2022-12-01T00:16:27;6.20;99.90
16198;DHT22;8206;51.440;6.914;2022-12-01T00:18:54;6.20;99.90
16198;DHT22;8206;51.440;6.914;2022-12-01T00:21:22;6.20;99.90
16198;DHT22;8206;51.440;6.914;2022-12-01T00:23:52;6.20;99.90
16198;DHT22;8206;51.440;6.914;2022-12-01T00:26:20;6.10;99.90
16198;DHT22;8206;51.440;6.914;2022-12-01T00:28:47;6.10;99.90
16198;DHT22;8206;51.440;6.914;2022-12-01T00:31:14;6.10;99.90
16198;DHT22;8206;51.440;6.914;2022-12-01T00:33:41;6.10;99.90
16198;DHT22;8206;51.440;6.914;2022-12-01T00:36:08;6.10;99.90
16198;DHT22;8206;51.440;6.914;2022-12-01T00:38:35;6.10;99.90
16198;DHT22;8206;51.440;6.914;2022-12-01T00:41:04;6.10;99.90
16198;DHT22;8206;51.440;6.914;2022-12-01T00:43:31;6.10;99.90
16198;DHT22;8206;51.440;6.914;2022-12-01T00:45:58;6.10;99.90
16198;DHT22;8206;51.440;6.914;2022-12-01T00:48:25;6.00;99.90
16198;DHT22;8206;51.440;6.914;2022-12-01T00:50:52;6.00;99.90
16198;DHT22;8206;51.440;6.914;2022-12-01T00:53:19;6.10;99.90
16198;DHT22;8206;51.440;6.914;2022-12-01T00:55:46;6.10;99.90
16198;DHT22;8206;51.440;6.914;2022-12-01T00:58:14;6.20;99.90
16198;DHT22;8206;51.440;6.914;2022-12-01T01:00:41;6.20;99.90
16198;DHT22;8206;51.440;6.914;2022-12-01T01:03:09;6.20;99.90
16198;DHT22;8206;51.440;6.914;2022-12-01T01:05:36;6.20;99.90
16198;DHT22;8206;51.440;6.914;2022-12-01T01:08:05;6.10;99.90
16198;DHT22;8206;51.440;6.914;2022-12-01T01:10:33;6.10;99.90
16198;DHT22;8206;51.440;6.914;2022-12-01T01:12:59;6.10;99.90
16198;DHT22;8206;51.440;6.914;2022-12-01T01:15:27;6.10;99.90
16198;DHT22;8206;51.440;6.914;2022-12-01T01:17:54;6.10;99.90
16198;DHT22;8206;51.440;6.914;2022-12-01T01:20:21;6.00;99.90
16198;DHT22;8206;51.440;6.914;2022-12-01T01:22:48;6.00;99.90
16198;DHT22;8206;51.440;6.914;2022-12-01T01:25:15;6.00;99.90
16198;DHT22;8206;51.440;6.914;2022-12-01T01:27:41;6.00;99.90
16198;DHT22;8206;51.440;6.914;2022-12-01T01:30:09;6.00;99.90
16198;DHT22;8206;51.440;6.914;2022-12-01T01:32:37;6.00;99.90
16198;DHT22;8206;51.440;6.914;2022-12-01T01:35:05;6.00;99.90
16198;DHT22;8206;51.440;6.914;2022-12-01T01:37:32;6.10;99.90
16198;DHT22;8206;51.440;6.914;2022-12-01T01:39:59;6.00;99.90
16198;DHT22;8206;51.440;6.914;2022-12-01T01:42:26;6.00;99.90
16198;DHT22;8206;51.440;6.914;2022-12-01T01:44:55;6.10;99.90
16198;DHT22;8206;51.440;6.914;2022-12-01T01:47:25;6.10;99.90
16198;DHT22;8206;51.440;6.914;2022-12-01T01:49:56;6.00;99.90
16198;DHT22;8206;51.440;6.914;2022-12-01T01:52:26;6.00;99.90
16198;DHT22;8206;51.440;6.914;2022-12-01T01:54:54;6.00;99.90
16198;DHT22;8206;51.440;6.914;2022-12-01T01:57:24;6.00;99.90
16198;DHT22;8206;51.440;6.914;2022-12-01T01:59:54;6.00;99.90
16198;DHT22;8206;51.440;6.914;2022-12-01T02:02:23;6.00;99.90
16198;DHT22;8206;51.440;6.914;2022-12-01T02:04:58;6.10;99.90
16198;DHT22;8206;51.440;6.914;2022-12-01T02:07:26;6.00;99.90
16198;DHT22;8206;51.440;6.914;2022-12-01T02:09:53;6.00;99.90
16198;DHT22;8206;51.440;6.914;2022-12-01T02:12:38;6.00;99.90
16198;DHT22;8206;51.440;6.914;2022-12-01T02:15:17;6.10;99.90
16198;DHT22;8206;51.440;6.914;2022-12-01T02:17:55;6.10;99.90
16198;DHT22;8206;51.440;6.914;2022-12-01T02:21:01;6.10;99.90
16198;DHT22;8206;51.440;6.914;2022-12-01T02:26:41;6.10;99.90
16198;DHT22;8206;51.440;6.914;2022-12-01T02:29:50;6.10;99.90
16198;DHT22;8206;51.440;6.914;2022-12-01T02:32:27;6.10;99.90
16198;DHT22;8206;51.440;6.914;2022-12-01T02:34:57;6.00;99.90
16198;DHT22;8206;51.440;6.914;2022-12-01T02:37:32;6.10;99.90
16198;DHT22;8206;51.440;6.914;2022-12-01T02:40:05;6.00;99.90
16198;DHT22;8206;51.440;6.914;2022-12-01T02:42:40;5.90;99.90
16198;DHT22;8206;51.440;6.914;2022-12-01T02:45:21;5.90;99.90
16198;DHT22;8206;51.440;6.914;2022-12-01T02:47:53;5.90;99.90
16198;DHT22;8206;51.440;6.914;2022-12-01T02:50:22;6.00;99.90
16198;DHT22;8206;51.440;6.914;2022-12-01T02:52:52;6.00;99.90
16198;DHT22;8206;51.440;6.914;2022-12-01T02:55:19;6.00;99.90
16198;DHT22;8206;51.440;6.914;2022-12-01T02:57:46;6.10;99.90
16198;DHT22;8206;51.440;6.914;2022-12-01T03:00:14;6.20;99.90
16198;DHT22;8206;51.440;6.914;2022-12-01T03:02:50;6.10;99.90
16198;DHT22;8206;51.440;6.914;2022-12-01T03:05:26;6.10;99.90
16198;DHT22;8206;51.440;6.914;2022-12-01T03:07:59;6.10;99.90
16198;DHT22;8206;51.440;6.914;2022-12-01T03:10:30;6.10;99.90
16198;DHT22;8206;51.440;6.914;2022-12-01T03:13:11;6.10;99.90
16198;DHT22;8206;51.440;6.914;2022-12-01T03:15:47;6.10;99.90
16198;DHT22;8206;51.440;6.914;2022-12-01T03:18:24;6.10;99.90
16198;DHT22;8206;51.440;6.914;2022-12-01T03:20:58;6.10;99.90
16198;DHT22;8206;51.440;6.914;2022-12-01T03:23:31;6.00;99.90
16198;DHT22;8206;51.440;6.914;2022-12-01T03:26:02;6.00;99.90
16198;DHT22;8206;51.440;6.914;2022-12-01T03:28:35;6.00;99.90
16198;DHT22;8206;51.440;6.914;2022-12-01T03:31:06;6.00;99.90
16198;DHT22;8206;51.440;6.914;2022-12-01T03:33:37;6.00;99.90
16198;DHT22;8206;51.440;6.914;2022-12-01T03:36:09;6.10;99.90
16198;DHT22;8206;51.440;6.914;2022-12-01T03:38:40;6.00;99.90
16198;DHT22;8206;51.440;6.914;2022-12-01T03:41:11;6.00;99.90
16198;DHT22;8206;51.440;6.914;2022-12-01T03:43:41;6.00;99.90
16198;DHT22;8206;51.440;6.914;2022-12-01T03:46:14;6.10;99.90
16198;DHT22;8206;51.440;6.914;2022-12-01T03:48:43;6.10;99.90
16198;DHT22;8206;51.440;6.914;2022-12-01T03:51:16;6.10;99.90
16198;DHT22;8206;51.440;6.914;2022-12-01T03:53:49;6.10;99.90
16198;DHT22;8206;51.440;6.914;2022-12-01T03:56:20;6.10;99.90
16198;DHT22;8206;51.440;6.914;2022-12-01T03:58:49;6.00;99.90
16198;DHT22;8206;51.440;6.914;2022-12-01T04:01:18;6.10;99.90
16198;DHT22;8206;51.440;6.914;2022-12-01T04:03:47;6.10;99.90
16198;DHT22;8206;51.440;6.914;2022-12-01T04:06:15;6.10;99.90
16198;DHT22;8206;51.440;6.914;2022-12-01T04:08:42;6.00;99.90
16198;DHT22;8206;51.440;6.914;2022-12-01T04:11:08;6.10;99.90
16198;DHT22;8206;51.440;6.914;2022-12-01T04:13:49;6.00;99.90
16198;DHT22;8206;51.440;6.914;2022-12-01T04:16:16;6.00;99.90
16198;DHT22;8206;51.440;6.914;2022-12-01T04:18:42;6.00;99.90
16198;DHT22;8206;51.440;6.914;2022-12-01T04:21:09;6.00;99.90
16198;DHT22;8206;51.440;6.914;2022-12-01T04:23:37;6.00;99.90
16198;DHT22;8206;51.440;6.914;2022-12-01T04:26:21;6.00;99.90
16198;DHT22;8206;51.440;6.914;2022-12-01T04:28:48;6.00;99.90
16198;DHT22;8206;51.440;6.914;2022-12-01T04:31:15;5.90;99.90
16198;DHT22;8206;51.440;6.914;2022-12-01T04:33:42;6.00;99.90
16198;DHT22;8206;51.440;6.914;2022-12-01T04:36:09;5.90;99.90
16198;DHT22;8206;51.440;6.914;2022-12-01T04:38:37;6.00;99.90
16198;DHT22;8206;51.440;6.914;2022-12-01T04:41:07;5.90;99.90
16198;DHT22;8206;51.440;6.914;2022-12-01T04:43:35;6.00;99.90
16198;DHT22;8206;51.440;6.914;2022-12-01T04:46:01;6.00;99.90
16198;DHT22;8206;51.440;6.914;2022-12-01T04:48:28;6.00;99.90
16198;DHT22;8206;51.440;6.914;2022-12-01T04:50:55;6.00;99.90
16198;DHT22;8206;51.440;6.914;2022-12-01T04:53:22;6.00;99.90
16198;DHT22;8206;51.440;6.914;2022-12-01T04:55:50;5.90;99.90
16198;DHT22;8206;51.440;6.914;2022-12-01T04:58:17;6.00;99.90
16198;DHT22;8206;51.440;6.914;2022-12-01T05:00:44;6.00;99.90
16198;DHT22;8206;51.440;6.914;2022-12-01T05:03:10;6.10;99.90
16198;DHT22;8206;51.440;6.914;2022-12-01T05:05:37;6.10;99.90
16198;DHT22;8206;51.440;6.914;2022-12-01T05:08:04;6.00;99.90
16198;DHT22;8206;51.440;6.914;2022-12-01T05:10:33;6.00;99.90
16198;DHT22;8206;51.440;6.914;2022-12-01T05:13:02;6.10;99.90
16198;DHT22;8206;51.440;6.914;2022-12-01T05:15:29;6.10;99.90
16198;DHT22;8206;51.440;6.914;2022-12-01T05:17:55;6.10;99.90
16198;DHT22;8206;51.440;6.914;2022-12-01T05:20:23;6.10;99.90
16198;DHT22;8206;51.440;6.914;2022-12-01T05:23:08;6.10;99.90
16198;DHT22;8206;51.440;6.914;2022-12-01T05:25:35;6.20;99.90
16198;DHT22;8206;51.440;6.914;2022-12-01T05:28:03;6.10;99.90
16198;DHT22;8206;51.440;6.914;2022-12-01T05:30:31;6.10;99.90
16198;DHT22;8206;51.440;6.914;2022-12-01T05:32:57;6.00;99.90
16198;DHT22;8206;51.440;6.914;2022-12-01T05:35:24;6.00;99.90
16198;DHT22;8206;51.440;6.914;2022-12-01T05:37:51;6.00;99.90
16198;DHT22;8206;51.440;6.914;2022-12-01T05:40:18;6.00;99.90
16198;DHT22;8206;51.440;6.914;2022-12-01T05:42:44;5.90;99.90
16198;DHT22;8206;51.440;6.914;2022-12-01T05:45:13;6.00;99.90
16198;DHT22;8206;51.440;6.914;2022-12-01T05:47:39;6.00;99.90
16198;DHT22;8206;51.440;6.914;2022-12-01T05:50:07;6.00;99.90
16198;DHT22;8206;51.440;6.914;2022-12-01T05:52:34;6.00;99.90
16198;DHT22;8206;51.440;6.914;2022-12-01T05:55:01;6.00;99.90
16198;DHT22;8206;51.440;6.914;2022-12-01T05:57:29;6.00;99.90
16198;DHT22;8206;51.440;6.914;2022-12-01T05:59:55;6.00;99.90
16198;DHT22;8206;51.440;6.914;2022-12-01T06:02:24;6.00;99.90
16198;DHT22;8206;51.440;6.914;2022-12-01T06:04:52;6.00;99.90
16198;DHT22;8206;51.440;6.914;2022-12-01T06:07:19;6.00;99.90
16198;DHT22;8206;51.440;6.914;2022-12-01T06:09:47;6.10;99.90
16198;DHT22;8206;51.440;6.914;2022-12-01T06:12:14;6.10;99.90
16198;DHT22;8206;51.440;6.914;2022-12-01T06:14:41;6.00;99.90
16198;DHT22;8206;51.440;6.914;2022-12-01T06:17:08;6.10;99.90
16198;DHT22;8206;51.440;6.914;2022-12-01T06:19:36;6.10;99.90
16198;DHT22;8206;51.440;6.914;2022-12-01T06:22:03;6.10;99.90
16198;DHT22;8206;51.440;6.914;2022-12-01T06:24:30;6.10;99.90
16198;DHT22;8206;51.440;6.914;2022-12-01T06:26:57;6.10;99.90
16198;DHT22;8206;51.440;6.914;2022-12-01T06:29:24;6.10;99.90
16198;DHT22;8206;51.440;6.914;2022-12-01T06:31:50;6.10;99.90
16198;DHT22;8206;51.440;6.914;2022-12-01T06:34:17;6.10;99.90
16198;DHT22;8206;51.440;6.914;2022-12-01T06:36:45;6.10;99.90
16198;DHT22;8206;51.440;6.914;2022-12-01T06:39:14;6.10;99.90
16198;DHT22;8206;51.440;6.914;2022-12-01T06:41:41;6.10;99.90
16198;DHT22;8206;51.440;6.914;2022-12-01T06:44:08;6.10;99.90
16198;DHT22;8206;51.440;6.914;2022-12-01T06:46:35;6.10;99.90
16198;DHT22;8206;51.440;6.914;2022-12-01T06:49:02;6.10;99.90
16198;DHT22;8206;51.440;6.914;2022-12-01T06:51:29;6.10;99.90
16198;DHT22;8206;51.440;6.914;2022-12-01T06:54:00;6.10;99.90
16198;DHT22;8206;51.440;6.914;2022-12-01T06:56:26;6.10;99.90
16198;DHT22;8206;51.440;6.914;2022-12-01T06:58:53;6.10;99.90
16198;DHT22;8206;51.440;6.914;2022-12-01T07:01:20;6.10;99.90
16198;DHT22;8206;51.440;6.914;2022-12-01T07:03:47;6.00;99.90
16198;DHT22;8206;51.440;6.914;2022-12-01T07:06:14;6.10;99.90
16198;DHT22;8206;51.440;6.914;2022-12-01T07:08:41;6.10;99.90
16198;DHT22;8206;51.440;6.914;2022-12-01T07:11:12;6.10;99.90
16198;DHT22;8206;51.440;6.914;2022-12-01T07:13:40;6.20;99.90
16198;DHT22;8206;51.440;6.914;2022-12-01T07:16:07;6.20;99.90
16198;DHT22;8206;51.440;6.914;2022-12-01T07:18:35;6.10;99.90
16198;DHT22;8206;51.440;6.914;2022-12-01T07:21:05;6.20;99.90
16198;DHT22;8206;51.440;6.914;2022-12-01T07:23:33;6.00;99.90
16198;DHT22;8206;51.440;6.914;2022-12-01T07:26:00;6.00;99.90
16198;DHT22;8206;51.440;6.914;2022-12-01T07:28:29;6.00;99.90
16198;DHT22;8206;51.440;6.914;2022-12-01T07:31:00;6.10;99.90
16198;DHT22;8206;51.440;6.914;2022-12-01T07:33:27;6.10;99.90
16198;DHT22;8206;51.440;6.914;2022-12-01T07:35:54;6.00;99.90
16198;DHT22;8206;51.440;6.914;2022-12-01T07:38:21;6.00;99.90
16198;DHT22;8206;51.440;6.914;2022-12-01T07:40:48;6.00;99.90
16198;DHT22;8206;51.440;6.914;2022-12-01T07:43:14;5.90;99.90
16198;DHT22;8206;51.440;6.914;2022-12-01T07:45:43;6.00;99.90
16198;DHT22;8206;51.440;6.914;2022-12-01T07:48:09;5.90;99.90
16198;DHT22;8206;51.440;6.914;2022-12-01T07:50:36;5.90;99.90
16198;DHT22;8206;51.440;6.914;2022-12-01T07:53:03;6.00;99.90
16198;DHT22;8206;51.440;6.914;2022-12-01T07:55:30;6.00;99.90
16198;DHT22;8206;51.440;6.914;2022-12-01T07:57:58;6.10;99.90
16198;DHT22;8206;51.440;6.914;2022-12-01T08:00:25;6.20;99.90
16198;DHT22;8206;51.440;6.914;2022-12-01T08:02:53;6.10;99.90
16198;DHT22;8206;51.440;6.914;2022-12-01T08:05:20;6.20;99.90
16198;DHT22;8206;51.440;6.914;2022-12-01T08:07:46;6.10;99.90
16198;DHT22;8206;51.440;6.914;2022-12-01T08:10:13;6.10;99.90
16198;DHT22;8206;51.440;6.914;2022-12-01T08:12:40;6.10;99.90
16198;DHT22;8206;51.440;6.914;2022-12-01T08:15:07;6.10;99.90
16198;DHT22;8206;51.440;6.914;2022-12-01T08:17:34;6.20;99.90
16198;DHT22;8206;51.440;6.914;2022-12-01T08:20:03;6.10;99.90
16198;DHT22;8206;51.440;6.914;2022-12-01T08:22:30;6.10;99.90
16198;DHT22;8206;51.440;6.914;2022-12-01T08:24:57;6.20;99.90
16198;DHT22;8206;51.440;6.914;2022-12-01T08:27:24;6.20;99.90
16198;DHT22;8206;51.440;6.914;2022-12-01T08:29:50;6.10;99.90
16198;DHT22;8206;51.440;6.914;2022-12-01T08:32:17;6.00;99.90
16198;DHT22;8206;51.440;6.914;2022-12-01T08:34:44;6.10;99.90
16198;DHT22;8206;51.440;6.914;2022-12-01T08:37:13;6.20;99.90
16198;DHT22;8206;51.440;6.914;2022-12-01T08:39:40;6.20;99.90
16198;DHT22;8206;51.440;6.914;2022-12-01T08:42:06;6.30;99.90
16198;DHT22;8206;51.440;6.914;2022-12-01T08:44:33;6.30;99.90
16198;DHT22;8206;51.440;6.914;2022-12-01T08:47:00;6.20;99.90
16198;DHT22;8206;51.440;6.914;2022-12-01T08:49:27;6.20;99.90
16198;DHT22;8206;51.440;6.914;2022-12-01T08:51:53;6.20;99.90
16198;DHT22;8206;51.440;6.914;2022-12-01T08:54:22;6.20;99.90
16198;DHT22;8206;51.440;6.914;2022-12-01T08:56:48;6.10;99.90
16198;DHT22;8206;51.440;6.914;2022-12-01T08:59:15;6.20;99.90
16198;DHT22;8206;51.440;6.914;2022-12-01T09:01:42;6.20;99.90
16198;DHT22;8206;51.440;6.914;2022-12-01T09:04:18;6.30;99.90
16198;DHT22;8206;51.440;6.914;2022-12-01T09:06:46;6.30;99.90
16198;DHT22;8206;51.440;6.914;2022-12-01T09:09:16;6.20;99.90
16198;DHT22;8206;51.440;6.914;2022-12-01T09:11:45;6.20;99.90
16198;DHT22;8206;51.440;6.914;2022-12-01T09:14:14;6.30;99.90
16198;DHT22;8206;51.440;6.914;2022-12-01T09:16:42;6.30;99.90
16198;DHT22;8206;51.440;6.914;2022-12-01T09:19:09;6.40;99.90
16198;DHT22;8206;51.440;6.914;2022-12-01T09:21:36;6.40;99.90
16198;DHT22;8206;51.440;6.914;2022-12-01T09:24:05;6.30;99.90
16198;DHT22;8206;51.440;6.914;2022-12-01T09:26:32;6.40;99.90
16198;DHT22;8206;51.440;6.914;2022-12-01T09:29:03;6.30;99.90
16198;DHT22;8206;51.440;6.914;2022-12-01T09:31:31;6.30;99.90
16198;DHT22;8206;51.440;6.914;2022-12-01T09:34:00;6.30;99.90
16198;DHT22;8206;51.440;6.914;2022-12-01T09:36:29;6.30;99.90
16198;DHT22;8206;51.440;6.914;2022-12-01T09:38:56;6.30;99.90
16198;DHT22;8206;51.440;6.914;2022-12-01T09:41:26;6.30;99.90
16198;DHT22;8206;51.440;6.914;2022-12-01T09:43:57;6.30;99.90
16198;DHT22;8206;51.440;6.914;2022-12-01T09:46:29;6.30;99.90
16198;DHT22;8206;51.440;6.914;2022-12-01T09:48:57;6.30;99.90
16198;DHT22;8206;51.440;6.914;2022-12-01T09:51:27;6.30;99.90
16198;DHT22;8206;51.440;6.914;2022-12-01T09:53:56;6.30;99.90
16198;DHT22;8206;51.440;6.914;2022-12-01T09:56:25;6.30;99.90
16198;DHT22;8206;51.440;6.914;2022-12-01T09:58:54;6.30;99.90
16198;DHT22;8206;51.440;6.914;2022-12-01T10:01:29;6.20;99.90
16198;DHT22;8206;51.440;6.914;2022-12-01T10:03:59;6.20;99.90
16198;DHT22;8206;51.440;6.914;2022-12-01T10:06:35;6.20;99.90
16198;DHT22;8206;51.440;6.914;2022-12-01T10:09:13;6.20;99.90
16198;DHT22;8206;51.440;6.914;2022-12-01T10:11:44;6.10;99.90
16198;DHT22;8206;51.440;6.914;2022-12-01T10:14:15;6.10;99.90
16198;DHT22;8206;51.440;6.914;2022-12-01T10:16:51;6.20;99.90
16198;DHT22;8206;51.440;6.914;2022-12-01T10:19:23;6.10;99.90
16198;DHT22;8206;51.440;6.914;2022-12-01T10:22:04;6.10;99.90
16198;DHT22;8206;51.440;6.914;2022-12-01T10:24:44;6.20;99.90
16198;DHT22;8206;51.440;6.914;2022-12-01T10:27:22;6.10;99.90
16198;DHT22;8206;51.440;6.914;2022-12-01T10:29:55;6.20;99.90
16198;DHT22;8206;51.440;6.914;2022-12-01T10:32:33;6.20;99.90
16198;DHT22;8206;51.440;6.914;2022-12-01T10:35:04;6.20;99.90
16198;DHT22;8206;51.440;6.914;2022-12-01T10:37:31;6.20;99.90
16198;DHT22;8206;51.440;6.914;2022-12-01T10:39:58;6.20;99.90
16198;DHT22;8206;51.440;6.914;2022-12-01T10:42:29;6.20;99.90
16198;DHT22;8206;51.440;6.914;2022-12-01T10:45:02;6.20;99.90
16198;DHT22;8206;51.440;6.914;2022-12-01T10:47:31;6.10;99.90
16198;DHT22;8206;51.440;6.914;2022-12-01T10:49:58;6.20;99.90
16198;DHT22;8206;51.440;6.914;2022-12-01T10:52:34;6.20;99.90
16198;DHT22;8206;51.440;6.914;2022-12-01T10:55:03;6.20;99.90
16198;DHT22;8206;51.440;6.914;2022-12-01T10:57:31;6.20;99.90
16198;DHT22;8206;51.440;6.914;2022-12-01T11:00:00;6.20;99.90
16198;DHT22;8206;51.440;6.914;2022-12-01T11:02:28;6.20;99.90
16198;DHT22;8206;51.440;6.914;2022-12-01T11:05:00;6.20;99.90
16198;DHT22;8206;51.440;6.914;2022-12-01T11:07:28;6.20;99.90
16198;DHT22;8206;51.440;6.914;2022-12-01T11:10:15;6.30;99.90
16198;DHT22;8206;51.440;6.914;2022-12-01T11:12:44;6.40;99.90
16198;DHT22;8206;51.440;6.914;2022-12-01T11:15:20;6.50;99.90
16198;DHT22;8206;51.440;6.914;2022-12-01T11:17:47;6.60;99.90
16198;DHT22;8206;51.440;6.914;2022-12-01T11:20:30;6.70;99.90
16198;DHT22;8206;51.440;6.914;2022-12-01T11:23:25;6.90;99.90
16198;DHT22;8206;51.440;6.914;2022-12-01T11:26:02;7.00;99.90
16198;DHT22;8206;51.440;6.914;2022-12-01T11:28:30;7.20;99.90
16198;DHT22;8206;51.440;6.914;2022-12-01T11:31:00;7.20;99.90
16198;DHT22;8206;51.440;6.914;2022-12-01T11:33:28;7.20;99.90
16198;DHT22;8206;51.440;6.914;2022-12-01T11:35:57;7.20;99.90
16198;DHT22;8206;51.440;6.914;2022-12-01T11:38:30;7.30;99.90
16198;DHT22;8206;51.440;6.914;2022-12-01T11:40:59;7.20;99.90
16198;DHT22;8206;51.440;6.914;2022-12-01T11:43:28;7.20;99.90
16198;DHT22;8206;51.440;6.914;2022-12-01T11:45:58;7.10;99.90
16198;DHT22;8206;51.440;6.914;2022-12-01T11:48:26;7.00;99.90
16198;DHT22;8206;51.440;6.914;2022-12-01T11:51:05;6.80;99.90
16198;DHT22;8206;51.440;6.914;2022-12-01T11:53:34;6.80;99.90
16198;DHT22;8206;51.440;6.914;2022-12-01T11:56:19;6.80;99.90
16198;DHT22;8206;51.440;6.914;2022-12-01T11:58:49;6.90;99.90
16198;DHT22;8206;51.440;6.914;2022-12-01T12:01:24;6.80;99.90
16198;DHT22;8206;51.440;6.914;2022-12-01T12:04:01;6.90;99.90
16198;DHT22;8206;51.440;6.914;2022-12-01T12:06:34;6.90;99.90
16198;DHT22;8206;51.440;6.914;2022-12-01T12:09:25;6.80;99.90
16198;DHT22;8206;51.440;6.914;2022-12-01T12:12:00;6.60;99.90
16198;DHT22;8206;51.440;6.914;2022-12-01T12:14:37;6.60;99.90
16198;DHT22;8206;51.440;6.914;2022-12-01T12:17:23;6.70;99.90
16198;DHT22;8206;51.440;6.914;2022-12-01T12:20:15;6.80;99.90
16198;DHT22;8206;51.440;6.914;2022-12-01T12:22:54;6.80;99.90
16198;DHT22;8206;51.440;6.914;2022-12-01T12:25:30;6.80;99.90
16198;DHT22;8206;51.440;6.914;2022-12-01T12:28:09;6.70;99.90
16198;DHT22;8206;51.440;6.914;2022-12-01T12:30:44;6.80;99.90
16198;DHT22;8206;51.440;6.914;2022-12-01T12:33:27;6.80;99.90
16198;DHT22;8206;51.440;6.914;2022-12-01T12:36:05;6.80;99.90
16198;DHT22;8206;51.440;6.914;2022-12-01T12:38:50;6.90;99.90
16198;DHT22;8206;51.440;6.914;2022-12-01T12:41:28;6.90;99.90
16198;DHT22;8206;51.440;6.914;2022-12-01T12:44:20;6.80;1.00
16198;DHT22;8206;51.440;6.914;2022-12-01T12:46:58;6.80;99.90
16198;DHT22;8206;51.440;6.914;2022-12-01T12:49:35;6.90;99.90
16198;DHT22;8206;51.440;6.914;2022-12-01T12:52:06;6.90;99.90
16198;DHT22;8206;51.440;6.914;2022-12-01T12:54:40;6.90;99.90
16198;DHT22;8206;51.440;6.914;2022-12-01T12:57:17;6.90;99.90
16198;DHT22;8206;51.440;6.914;2022-12-01T12:59:48;6.90;99.90
16198;DHT22;8206;51.440;6.914;2022-12-01T13:02:21;6.90;99.90
16198;DHT22;8206;51.440;6.914;2022-12-01T13:04:55;6.90;99.90
16198;DHT22;8206;51.440;6.914;2022-12-01T13:07:31;7.00;99.90
16198;DHT22;8206;51.440;6.914;2022-12-01T13:10:06;7.00;99.90
16198;DHT22;8206;51.440;6.914;2022-12-01T13:12:36;7.00;99.90
16198;DHT22;8206;51.440;6.914;2022-12-01T13:15:12;7.00;99.90
16198;DHT22;8206;51.440;6.914;2022-12-01T13:17:41;6.90;99.90
16198;DHT22;8206;51.440;6.914;2022-12-01T13:20:12;6.90;99.90
16198;DHT22;8206;51.440;6.914;2022-12-01T13:22:39;6.90;99.90
16198;DHT22;8206;51.440;6.914;2022-12-01T13:25:12;6.90;99.90
16198;DHT22;8206;51.440;6.914;2022-12-01T13:27:41;6.90;99.90
16198;DHT22;8206;51.440;6.914;2022-12-01T13:30:17;6.90;99.90
16198;DHT22;8206;51.440;6.914;2022-12-01T13:32:45;6.90;99.90
16198;DHT22;8206;51.440;6.914;2022-12-01T13:35:21;6.90;99.90
16198;DHT22;8206;51.440;6.914;2022-12-01T13:37:49;6.80;99.90
16198;DHT22;8206;51.440;6.914;2022-12-01T13:40:22;6.80;99.90
16198;DHT22;8206;51.440;6.914;2022-12-01T13:42:58;6.80;99.90
16198;DHT22;8206;51.440;6.914;2022-12-01T13:45:30;6.80;99.90
16198;DHT22;8206;51.440;6.914;2022-12-01T13:47:59;6.70;99.90
16198;DHT22;8206;51.440;6.914;2022-12-01T13:50:54;6.70;99.90
16198;DHT22;8206;51.440;6.914;2022-12-01T13:53:27;6.60;99.90
16198;DHT22;8206;51.440;6.914;2022-12-01T13:55:58;6.70;99.90
16198;DHT22;8206;51.440;6.914;2022-12-01T13:58:41;6.70;99.90
16198;DHT22;8206;51.440;6.914;2022-12-01T14:01:45;6.70;99.90
16198;DHT22;8206;51.440;6.914;2022-12-01T14:04:31;6.80;99.90
16198;DHT22;8206;51.440;6.914;2022-12-01T14:07:32;6.70;99.90
16198;DHT22;8206;51.440;6.914;2022-12-01T14:10:21;6.70;99.90
16198;DHT22;8206;51.440;6.914;2022-12-01T14:12:52;6.70;99.90
16198;DHT22;8206;51.440;6.914;2022-12-01T14:15:26;6.80;99.90
16198;DHT22;8206;51.440;6.914;2022-12-01T14:17:59;6.80;99.90
16198;DHT22;8206;51.440;6.914;2022-12-01T14:20:29;6.80;99.90
16198;DHT22;8206;51.440;6.914;2022-12-01T14:23:13;6.80;99.90
16198;DHT22;8206;51.440;6.914;2022-12-01T14:25:41;6.70;99.90
16198;DHT22;8206;51.440;6.914;2022-12-01T14:28:14;6.70;99.90
16198;DHT22;8206;51.440;6.914;2022-12-01T14:31:02;6.60;99.90
16198;DHT22;8206;51.440;6.914;2022-12-01T14:33:56;6.60;99.90
16198;DHT22;8206;51.440;6.914;2022-12-01T14:36:33;6.60;99.90
16198;DHT22;8206;51.440;6.914;2022-12-01T14:39:04;6.50;99.90
16198;DHT22;8206;51.440;6.914;2022-12-01T14:41:41;6.40;99.90
16198;DHT22;8206;51.440;6.914;2022-12-01T14:44:14;6.40;99.90
16198;DHT22;8206;51.440;6.914;2022-12-01T14:46:44;6.30;99.90
16198;DHT22;8206;51.440;6.914;2022-12-01T14:49:16;6.30;99.90
16198;DHT22;8206;51.440;6.914;2022-12-01T14:51:47;6.40;99.90
16198;DHT22;8206;51.440;6.914;2022-12-01T14:54:22;6.40;99.90
16198;DHT22;8206;51.440;6.914;2022-12-01T14:56:52;6.40;99.90
16198;DHT22;8206;51.440;6.914;2022-12-01T14:59:22;6.40;99.90
16198;DHT22;8206;51.440;6.914;2022-12-01T15:01:52;6.40;99.90
16198;DHT22;8206;51.440;6.914;2022-12-01T15:04:20;6.40;99.90
16198;DHT22;8206;51.440;6.914;2022-12-01T15:06:53;6.30;99.90
16198;DHT22;8206;51.440;6.914;2022-12-01T15:09:21;6.20;99.90
16198;DHT22;8206;51.440;6.914;2022-12-01T15:11:51;6.20;99.90
16198;DHT22;8206;51.440;6.914;2022-12-01T15:14:28;6.20;99.90
16198;DHT22;8206;51.440;6.914;2022-12-01T15:16:56;6.20;99.90
16198;DHT22;8206;51.440;6.914;2022-12-01T15:19:32;6.20;99.90
16198;DHT22;8206;51.440;6.914;2022-12-01T15:22:03;6.20;99.90
16198;DHT22;8206;51.440;6.914;2022-12-01T15:24:30;6.10;99.90
16198;DHT22;8206;51.440;6.914;2022-12-01T15:26:59;6.10;99.90
16198;DHT22;8206;51.440;6.914;2022-12-01T15:29:28;6.10;99.90
16198;DHT22;8206;51.440;6.914;2022-12-01T15:31:57;6.00;99.90
16198;DHT22;8206;51.440;6.914;2022-12-01T15:34:29;6.10;99.90
16198;DHT22;8206;51.440;6.914;2022-12-01T15:36:57;6.10;99.90
16198;DHT22;8206;51.440;6.914;2022-12-01T15:39:35;6.10;99.90
16198;DHT22;8206;51.440;6.914;2022-12-01T15:42:03;6.10;99.90
16198;DHT22;8206;51.440;6.914;2022-12-01T15:44:32;6.00;99.90
16198;DHT22;8206;51.440;6.914;2022-12-01T15:47:28;6.00;99.90
16198;DHT22;8206;51.440;6.914;2022-12-01T15:49:55;6.10;99.90
16198;DHT22;8206;51.440;6.914;2022-12-01T15:52:22;6.00;99.90
16198;DHT22;8206;51.440;6.914;2022-12-01T15:54:49;6.00;99.90
16198;DHT22;8206;51.440;6.914;2022-12-01T15:57:17;6.00;99.90
16198;DHT22;8206;51.440;6.914;2022-12-01T15:59:51;6.00;99.90
16198;DHT22;8206;51.440;6.914;2022-12-01T16:02:25;5.90;99.90
16198;DHT22;8206;51.440;6.914;2022-12-01T16:05:02;6.00;99.90
16198;DHT22;8206;51.440;6.914;2022-12-01T16:07:34;5.80;99.90
16198;DHT22;8206;51.440;6.914;2022-12-01T16:10:03;5.80;99.90
16198;DHT22;8206;51.440;6.914;2022-12-01T16:12:31;5.70;99.90
16198;DHT22;8206;51.440;6.914;2022-12-01T16:15:13;5.70;99.90
16198;DHT22;8206;51.440;6.914;2022-12-01T16:17:44;5.70;99.90
16198;DHT22;8206;51.440;6.914;2022-12-01T16:20:16;5.70;99.90
16198;DHT22;8206;51.440;6.914;2022-12-01T16:22:44;5.70;99.90
16198;DHT22;8206;51.440;6.914;2022-12-01T16:25:16;5.70;99.90
16198;DHT22;8206;51.440;6.914;2022-12-01T16:27:52;5.70;99.90
16198;DHT22;8206;51.440;6.914;2022-12-01T16:30:22;5.70;99.90